Saga Sapphire — 9HOF8 — position and weather

sailwx.info

Track history (hours):
 
Tides and Currents Weather Stations Pressure Air Temp Water Temp Dewpoint Dewpoint Depression Visibility Wind Speed Wind Dir Waves Ship Positions

Saga Sapphire

Last reported at 2017-Jul-26 12:00 UTC. Time now 2017-Jul-26 16:47 UTC.
Position N 57°00' E 020°36'.

Length 200 m; draft 8.6 m.

Type: Passenger vessel. MMSI: 256208000.

Wind from 010 at 19 knots

Barometer 1002.3 mb
Air temperature 21.5 ° C
Visibility: greater than 10.8 NM
Dewpoint 16.2 ° C

Date/timePositionNaut miles runAvg speedWind from/ knotsBaromVisibWave heightAir tempDewpointWater temp
2017-Jul-26 12:00N 57°00' E 020°36'52 6.2 010 / 191002.310.8 21.516.2
2017-Jul-26 03:36N 57°46' E 021°21'1 9.8
2017-Jul-26 03:31N 57°46' E 021°23'19 0.6
2017-Jul-24 19:20N 57°41' E 021°57'3 9.8
2017-Jul-24 19:00N 57°42' E 021°52'5589.1
2017-Jul-24 19:00N 57°42' E 021°42'4 8.7 020 / 201010.910.8 18.415.2
2017-Jul-24 18:30N 57°46' E 021°44'511.1
2017-Jul-24 18:00N 57°49' E 021°35'911.3
2017-Jul-24 17:10N 57°46' E 021°18'210.0
2017-Jul-24 16:58N 57°45' E 021°15'4 9.6
2017-Jul-24 16:30N 57°41' E 021°12'5 9.9
2017-Jul-24 16:00N 57°37' E 021°17'15 3.7
2017-Jul-24 11:54N 57°24' E 021°32'0 0.0
2017-Jul-24 11:27N 57°24' E 021°32'0 0.0
2017-Jul-24 11:00N 57°24' E 021°32'0 0.0
2017-Jul-24 10:31N 57°24' E 021°32'0 0.0
2017-Jul-24 09:59N 57°24' E 021°32'0 0.0
2017-Jul-24 09:29N 57°24' E 021°32'0 0.0
2017-Jul-24 08:55N 57°24' E 021°32'0 0.0
2017-Jul-24 08:27N 57°24' E 021°32'0 0.0
2017-Jul-24 07:48N 57°24' E 021°32'0 0.0
2017-Jul-24 07:27N 57°24' E 021°32'0 0.0
2017-Jul-24 06:59N 57°24' E 021°32'0 0.0
2017-Jul-24 06:30N 57°24' E 021°32'0 0.0
2017-Jul-24 06:00N 57°24' E 021°32'1 1.3
2017-Jul-24 05:31N 57°25' E 021°31'5 9.1
2017-Jul-24 05:00N 57°28' E 021°26'4 8.9
2017-Jul-24 04:30N 57°32' E 021°22'612.8
2017-Jul-24 04:00N 57°37' E 021°15'713.2
2017-Jul-24 03:30N 57°43' E 021°10'714.0
2017-Jul-24 03:00N 57°50' E 021°10'815.3
2017-Jul-24 02:30N 57°58' E 021°11'713.6
2017-Jul-24 02:00N 58°05' E 021°12'815.4
2017-Jul-24 01:30N 58°12' E 021°12'714.2
2017-Jul-24 01:00N 58°19' E 021°11'815.1
2017-Jul-24 00:30N 58°27' E 021°11'713.4
2017-Jul-24 00:01N 58°34' E 021°11'714.0
2017-Jul-23 23:30N 58°41' E 021°13'815.6
2017-Jul-23 23:00N 58°48' E 021°15'713.4
2017-Jul-23 22:30N 58°55' E 021°16'816.4
2017-Jul-23 22:00N 59°03' E 021°17'815.1
2017-Jul-23 21:31N 59°11' E 021°17'714.8
2017-Jul-23 21:00N 59°18' E 021°18'714.9
2017-Jul-23 20:31N 59°26' E 021°18'713.3
2017-Jul-23 20:01N 59°32' E 021°19'714.3
2017-Jul-23 19:31N 59°39' E 021°20'713.0
2017-Jul-23 19:00N 59°46' E 021°21'10639.8
2017-Jul-23 19:00N 59°36' E 021°18'1530.3 330 / 111017.010.8 17.213.3
2017-Jul-23 18:30N 59°50' E 021°24'713.3
2017-Jul-23 18:00N 59°54' E 021°35'612.9
2017-Jul-23 17:30N 59°59' E 021°42'713.3
2017-Jul-23 17:00N 60°06' E 021°42'510.3
2017-Jul-23 16:30N 60°11' E 021°42'4 7.0
2017-Jul-23 16:00N 60°14' E 021°46'510.2
2017-Jul-23 15:31N 60°16' E 021°56'4 8.5
2017-Jul-23 15:00N 60°19' E 022°03'2 3.6
2017-Jul-23 14:30N 60°20' E 022°04'0 0.4
2017-Jul-23 14:00N 60°21' E 022°04'0 0.7
2017-Jul-23 13:30N 60°21' E 022°04'0 0.7
2017-Jul-23 13:00N 60°21' E 022°04'0 0.4
2017-Jul-23 12:31N 60°21' E 022°05'2 3.7
2017-Jul-23 12:00N 60°23' E 022°06'3 6.1
2017-Jul-23 11:30N 60°25' E 022°10'2 3.3
2017-Jul-23 11:00N 60°26' E 022°13'0 0.9
2017-Jul-23 10:29N 60°26' E 022°13'0 0.0
2017-Jul-23 09:59N 60°26' E 022°13'0 0.0
2017-Jul-23 09:29N 60°26' E 022°13'0 0.0
2017-Jul-23 08:59N 60°26' E 022°13'0 0.0
2017-Jul-23 08:29N 60°26' E 022°13'0 0.0
2017-Jul-23 07:59N 60°26' E 022°13'0 0.0
2017-Jul-23 07:29N 60°26' E 022°13'0 0.0
2017-Jul-23 06:54N 60°26' E 022°13'0 0.0
2017-Jul-23 06:29N 60°26' E 022°13'0 0.0
2017-Jul-23 05:59N 60°26' E 022°13'0 0.0
2017-Jul-23 05:29N 60°26' E 022°13'0 0.0
2017-Jul-23 04:59N 60°26' E 022°13'0 0.0
2017-Jul-23 04:29N 60°26' E 022°13'0 0.0
2017-Jul-23 03:59N 60°26' E 022°13'0 0.0
2017-Jul-23 03:29N 60°26' E 022°13'0 0.0
2017-Jul-23 02:59N 60°26' E 022°13'0 0.0
2017-Jul-23 02:29N 60°26' E 022°13'0 0.0
2017-Jul-23 01:59N 60°26' E 022°13'0 0.0
2017-Jul-23 01:29N 60°26' E 022°13'0 0.0
2017-Jul-23 00:59N 60°26' E 022°13'0 0.0
2017-Jul-23 00:29N 60°26' E 022°13'0 0.0
2017-Jul-22 23:59N 60°26' E 022°13'0 0.0
2017-Jul-22 23:29N 60°26' E 022°13'0 0.0
2017-Jul-22 22:59N 60°26' E 022°13'0 0.0
2017-Jul-22 22:29N 60°26' E 022°13'0 0.0
2017-Jul-22 21:59N 60°26' E 022°13'0 0.0
2017-Jul-22 21:29N 60°26' E 022°13'0 0.0
2017-Jul-22 20:58N 60°26' E 022°13'0 0.0
2017-Jul-22 20:25N 60°26' E 022°13'0 0.0
2017-Jul-22 19:58N 60°26' E 022°13'0 0.0
2017-Jul-22 19:29N 60°26' E 022°13'0 0.0
2017-Jul-22 18:58N 60°26' E 022°13'0 0.0
2017-Jul-22 18:28N 60°26' E 022°13'0 0.0
2017-Jul-22 17:58N 60°26' E 022°13'0 0.0
2017-Jul-22 17:28N 60°26' E 022°13'0 0.0
2017-Jul-22 16:58N 60°26' E 022°13'0 0.0
2017-Jul-22 16:28N 60°26' E 022°13'0 0.0
2017-Jul-22 15:58N 60°26' E 022°13'0 0.0
2017-Jul-22 15:28N 60°26' E 022°13'0 0.0
2017-Jul-22 14:58N 60°26' E 022°13'0 0.0
2017-Jul-22 13:58N 60°26' E 022°13'0 0.0
2017-Jul-22 13:28N 60°26' E 022°13'0 0.0
2017-Jul-22 12:58N 60°26' E 022°13'0 0.0
2017-Jul-22 12:28N 60°26' E 022°13'0 0.0
2017-Jul-22 11:58N 60°26' E 022°13'0 0.0
2017-Jul-22 11:28N 60°26' E 022°13'0 0.0
2017-Jul-22 10:58N 60°26' E 022°13'0 0.0
2017-Jul-22 10:28N 60°26' E 022°13'0 0.0
2017-Jul-22 09:58N 60°26' E 022°13'0 0.0
2017-Jul-22 09:28N 60°26' E 022°13'0 0.0
2017-Jul-22 08:58N 60°26' E 022°13'0 0.0
2017-Jul-22 08:28N 60°26' E 022°13'0 0.0
2017-Jul-22 07:58N 60°26' E 022°13'0 0.0
2017-Jul-22 07:30N 60°26' E 022°13'0 0.8
2017-Jul-22 07:00N 60°26' E 022°13'3 5.8
2017-Jul-22 06:30N 60°25' E 022°08'5 9.6
2017-Jul-22 06:00N 60°20' E 022°04'5 9.1
2017-Jul-22 05:30N 60°17' E 021°59'5 9.7
2017-Jul-22 05:00N 60°15' E 021°49'4 8.7
2017-Jul-22 04:30N 60°12' E 021°42'5 9.6
2017-Jul-22 04:00N 60°08' E 021°41'510.4
2017-Jul-22 03:30N 60°03' E 021°41'510.6
2017-Jul-22 03:00N 59°57' E 021°41'510.5
2017-Jul-22 02:30N 59°54' E 021°33'510.7
2017-Jul-22 02:00N 59°51' E 021°24'5 9.7
2017-Jul-22 01:30N 59°46' E 021°21'5 9.1
2017-Jul-22 01:00N 59°42' E 021°20'511.0
2017-Jul-22 00:30N 59°37' E 021°14'815.3
2017-Jul-22 00:00N 59°37' E 020°59'816.2
2017-Jul-21 23:31N 59°39' E 020°43'815.1
2017-Jul-21 23:01N 59°42' E 020°30'815.5
2017-Jul-21 22:31N 59°45' E 020°15'816.3
2017-Jul-21 22:00N 59°45' E 019°59'816.2
2017-Jul-21 21:30N 59°45' E 019°43'815.6
2017-Jul-21 21:01N 59°47' E 019°28'713.5
2017-Jul-21 20:30N 59°45' E 019°15'815.2
2017-Jul-21 20:01N 59°42' E 019°01'510.3
2017-Jul-21 19:30N 59°39' E 018°53'611.2
2017-Jul-21 19:00N 59°35' E 018°44'510.4
2017-Jul-21 18:30N 59°33' E 018°35'5 9.8
2017-Jul-21 18:00N 59°30' E 018°28'5 9.9
2017-Jul-21 17:30N 59°25' E 018°25'3 6.6
2017-Jul-21 17:00N 59°22' E 018°24'5 9.9
2017-Jul-21 16:30N 59°21' E 018°15'4 7.7
2017-Jul-21 16:00N 59°21' E 018°07'0 0.4
2017-Jul-21 15:31N 59°21' E 018°07'0 0.0
2017-Jul-21 14:59N 59°21' E 018°07'0 0.0
2017-Jul-21 14:19N 59°21' E 018°07'0 0.0
2017-Jul-21 13:49N 59°21' E 018°07'0 0.0
2017-Jul-21 13:13N 59°21' E 018°07'0 0.0
2017-Jul-21 12:58N 59°21' E 018°07'0 0.0
2017-Jul-21 12:27N 59°21' E 018°07'0 0.0
2017-Jul-21 11:57N 59°21' E 018°07'0 0.0
2017-Jul-21 11:23N 59°21' E 018°07'0 0.0
2017-Jul-21 10:58N 59°21' E 018°07'0 0.0
2017-Jul-21 10:28N 59°21' E 018°07'0 0.0
2017-Jul-21 09:58N 59°21' E 018°07'0 0.0
2017-Jul-21 09:30N 59°21' E 018°07'0 0.0
2017-Jul-21 09:00N 59°21' E 018°07'0 0.0
2017-Jul-21 08:17N 59°21' E 018°07'0 0.0
2017-Jul-21 07:58N 59°21' E 018°07'0 0.0
2017-Jul-21 07:28N 59°21' E 018°07'0 0.0
2017-Jul-21 06:48N 59°21' E 018°07'0 0.4
2017-Jul-21 06:30N 59°21' E 018°07'3 5.8
2017-Jul-21 06:01N 59°20' E 018°12'5 9.9
2017-Jul-21 05:30N 59°23' E 018°21'3 5.8
2017-Jul-21 05:00N 59°23' E 018°27'3 6.3
2017-Jul-21 04:30N 59°27' E 018°26'4 8.4
2017-Jul-21 04:00N 59°24' E 018°32'5 9.6
2017-Jul-21 03:30N 59°23' E 018°42'5 9.9
2017-Jul-21 03:01N 59°19' E 018°48'5 9.7
2017-Jul-21 02:30N 59°16' E 018°56'5 9.4
2017-Jul-21 02:00N 59°14' E 019°04'4 8.9
2017-Jul-21 01:30N 59°11' E 019°10'611.6
2017-Jul-21 01:00N 59°05' E 019°07'713.3
2017-Jul-21 00:30N 58°59' E 019°02'713.8
2017-Jul-21 00:00N 58°53' E 018°57'714.7
2017-Jul-20 23:30N 58°46' E 018°51'714.9
2017-Jul-20 23:00N 58°39' E 018°46'3015.0
2017-Jul-20 21:02N 58°12' E 018°25'7142.8
2017-Jul-20 21:00N 58°18' E 018°30'9121.8 010 / 111014.710.8 16.515.5
2017-Jul-20 20:55N 58°10' E 018°24'715.2
2017-Jul-20 20:29N 58°04' E 018°20'715.1
2017-Jul-20 20:00N 57°57' E 018°13'815.3
2017-Jul-20 19:30N 57°50' E 018°07'815.3
2017-Jul-20 19:00N 57°43' E 018°01'4015.9
2017-Jul-20 16:28N 57°06' E 017°32'1016.3
2017-Jul-20 15:53N 56°57' E 017°25'616.2
2017-Jul-20 15:30N 56°52' E 017°21'816.2
2017-Jul-20 15:00N 56°44' E 017°15'2116.1
2017-Jul-20 13:43N 56°25' E 017°02'316.0
2017-Jul-20 13:30N 56°22' E 017°00'816.0
2017-Jul-20 13:01N 56°14' E 016°55'816.1
2017-Jul-20 12:30N 56°06' E 016°52'815.8
2017-Jul-20 12:00N 56°01' E 016°42'816.0
2017-Jul-20 11:30N 55°57' E 016°30'816.0
2017-Jul-20 11:00N 55°53' E 016°17'816.1
2017-Jul-20 10:30N 55°49' E 016°04'816.0
2017-Jul-20 10:00N 55°46' E 015°51'816.1
2017-Jul-20 09:30N 55°43' E 015°38'816.1
2017-Jul-20 09:00N 55°38' E 015°26'816.1
2017-Jul-20 08:30N 55°34' E 015°14'816.3
2017-Jul-20 08:01N 55°31' E 015°01'816.2
2017-Jul-20 07:30N 55°27' E 014°48'816.0
2017-Jul-20 07:00N 55°22' E 014°37'816.2
2017-Jul-20 06:30N 55°16' E 014°29'816.0
2017-Jul-20 06:01N 55°10' E 014°20'816.1
2017-Jul-20 05:30N 55°03' E 014°10'815.7
2017-Jul-20 05:00N 54°59' E 013°59'815.9
2017-Jul-20 04:30N 54°57' E 013°45'815.9
2017-Jul-20 03:59N 54°54' E 013°31'715.7
2017-Jul-20 03:30N 54°52' E 013°19'815.7
2017-Jul-20 02:59N 54°49' E 013°06'815.5
2017-Jul-20 02:30N 54°47' E 012°53'815.1
2017-Jul-20 01:59N 54°44' E 012°41'1815.1
2017-Jul-20 00:48N 54°32' E 012°17'515.6
2017-Jul-20 00:29N 54°28' E 012°15'714.3
2017-Jul-20 00:00N 54°25' E 012°04'1714.9
2017-Jul-19 22:50N 54°28' E 011°35'515.7
2017-Jul-19 22:29N 54°30' E 011°26'714.8
2017-Jul-19 22:01N 54°33' E 011°15'714.4
2017-Jul-19 21:30N 54°37' E 011°05'714.7
2017-Jul-19 21:00N 54°41' E 010°54'713.1
2017-Jul-19 20:30N 54°47' E 010°51'713.7
2017-Jul-19 20:01N 54°54' E 010°53'12736.0
2017-Jul-19 20:00N 54°42' E 010°48'1939.2 090 / 351011.610.8 17.113.2
2017-Jul-19 19:30N 54°60' E 011°01'814.6
2017-Jul-19 18:59N 55°07' E 011°02'109 5.0
2017-Jul-18 21:21N 56°53' E 011°46'511.6
2017-Jul-18 20:54N 56°58' E 011°43'611.7
2017-Jul-18 20:22N 57°04' E 011°39'2 5.8
2017-Jul-18 20:00N 57°06' E 011°36'386.1 230 / 151018.3 5.4 16.011.2
2017-Jul-18 19:57N 57°09' E 011°37'511.6
2017-Jul-18 19:30N 57°14' E 011°37'611.6
2017-Jul-18 19:00N 57°20' E 011°35'611.2
2017-Jul-18 18:30N 57°26' E 011°36'611.6
2017-Jul-18 18:00N 57°31' E 011°37'510.5
2017-Jul-18 17:31N 57°36' E 011°40'5 9.6
2017-Jul-18 17:00N 57°41' E 011°43'3 6.6
2017-Jul-18 16:30N 57°42' E 011°49'0 0.1
2017-Jul-18 16:01N 57°42' E 011°49'0 0.1
2017-Jul-18 15:30N 57°42' E 011°49'0 0.0
2017-Jul-18 14:59N 57°42' E 011°49'0 0.0
2017-Jul-18 13:59N 57°42' E 011°49'0 0.0
2017-Jul-18 13:29N 57°42' E 011°49'0 0.0
2017-Jul-18 12:58N 57°42' E 011°49'0 0.0
2017-Jul-18 12:28N 57°42' E 011°49'0 0.0
2017-Jul-18 11:58N 57°42' E 011°49'0 0.0
2017-Jul-18 11:28N 57°42' E 011°49'0 0.0
2017-Jul-18 11:00N 57°42' E 011°49'0 0.0
2017-Jul-18 10:30N 57°42' E 011°49'0 0.0
2017-Jul-18 10:00N 57°42' E 011°49'0 0.0
2017-Jul-18 09:31N 57°42' E 011°49'0 0.0
2017-Jul-18 08:59N 57°42' E 011°49'0 0.0
2017-Jul-18 08:29N 57°42' E 011°49'0 0.0
2017-Jul-18 07:59N 57°42' E 011°49'0 0.0
2017-Jul-18 07:29N 57°42' E 011°49'0 0.0
2017-Jul-18 06:59N 57°42' E 011°49'0 0.0
2017-Jul-18 06:29N 57°42' E 011°49'0 0.0
2017-Jul-18 06:01N 57°42' E 011°49'1 2.0
2017-Jul-18 05:30N 57°41' E 011°48'4 7.7
2017-Jul-18 05:00N 57°39' E 011°41'5 9.3
2017-Jul-18 04:31N 57°36' E 011°36'4 8.5
2017-Jul-18 04:00N 57°38' E 011°30'4 8.6
2017-Jul-18 03:30N 57°41' E 011°24'611.1
2017-Jul-18 03:00N 57°44' E 011°16'611.4
2017-Jul-18 02:30N 57°48' E 011°07'712.0
2017-Jul-18 01:54N 57°52' E 010°56'512.0
2017-Jul-18 01:30N 57°54' E 010°48'612.1
2017-Jul-18 01:00N 57°55' E 010°37'612.9
2017-Jul-18 00:30N 57°54' E 010°25'5710.4
2017-Jul-17 19:00N 57°30' E 008°48'100 8.9 270 / 151017.0 0.3 15.010.9
2017-Jul-17 07:47N 56°12' E 006°52'3 8.8
2017-Jul-17 07:30N 56°10' E 006°50'5 9.0
2017-Jul-17 06:59N 56°06' E 006°46'4 8.9
2017-Jul-17 06:30N 56°02' E 006°42'2447.3
2017-Jul-17 06:00N 55°42' E 006°18'64 6.4 220 / 181019.510.8 15.510.816.0
2017-Jul-16 20:00N 54°48' E 005°18'   270 / 251021.010.8 15.410.915.0
Track history (hours):
 
Tides and Currents Weather Stations Pressure Air Temp Water Temp Dewpoint Dewpoint Depression Visibility Wind Speed Wind Dir Waves Ship Positions

Saga Sapphire

Last reported at 2017-Jul-26 12:00 UTC. Time now 2017-Jul-26 16:47 UTC.
Position N 57°00' E 020°36'.

Length 200 m; draft 8.6 m.

Type: Passenger vessel. MMSI: 256208000.

Wind from 010 at 19 knots

Barometer 1002.3 mb
Air temperature 21.5 ° C
Visibility: greater than 10.8 NM
Dewpoint 16.2 ° C

Date/timePositionNaut miles runAvg speedWind from/ knotsBaromVisibWave heightAir tempDewpointWater temp
2017-Jul-26 12:00N 57°00' E 020°36'52 6.2 010 / 191002.310.8 21.516.2
2017-Jul-26 03:36N 57°46' E 021°21'1 9.8
2017-Jul-26 03:31N 57°46' E 021°23'19 0.6
2017-Jul-24 19:20N 57°41' E 021°57'3 9.8
2017-Jul-24 19:00N 57°42' E 021°52'5589.1
2017-Jul-24 19:00N 57°42' E 021°42'4 8.7 020 / 201010.910.8 18.415.2
2017-Jul-24 18:30N 57°46' E 021°44'511.1
2017-Jul-24 18:00N 57°49' E 021°35'911.3
2017-Jul-24 17:10N 57°46' E 021°18'210.0
2017-Jul-24 16:58N 57°45' E 021°15'4 9.6
2017-Jul-24 16:30N 57°41' E 021°12'5 9.9
2017-Jul-24 16:00N 57°37' E 021°17'15 3.7
2017-Jul-24 11:54N 57°24' E 021°32'0 0.0
2017-Jul-24 11:27N 57°24' E 021°32'0 0.0
2017-Jul-24 11:00N 57°24' E 021°32'0 0.0
2017-Jul-24 10:31N 57°24' E 021°32'0 0.0
2017-Jul-24 09:59N 57°24' E 021°32'0 0.0
2017-Jul-24 09:29N 57°24' E 021°32'0 0.0
2017-Jul-24 08:55N 57°24' E 021°32'0 0.0
2017-Jul-24 08:27N 57°24' E 021°32'0 0.0
2017-Jul-24 07:48N 57°24' E 021°32'0 0.0
2017-Jul-24 07:27N 57°24' E 021°32'0 0.0
2017-Jul-24 06:59N 57°24' E 021°32'0 0.0
2017-Jul-24 06:30N 57°24' E 021°32'0 0.0
2017-Jul-24 06:00N 57°24' E 021°32'1 1.3
2017-Jul-24 05:31N 57°25' E 021°31'5 9.1
2017-Jul-24 05:00N 57°28' E 021°26'4 8.9
2017-Jul-24 04:30N 57°32' E 021°22'612.8
2017-Jul-24 04:00N 57°37' E 021°15'713.2
2017-Jul-24 03:30N 57°43' E 021°10'714.0
2017-Jul-24 03:00N 57°50' E 021°10'815.3
2017-Jul-24 02:30N 57°58' E 021°11'713.6
2017-Jul-24 02:00N 58°05' E 021°12'815.4
2017-Jul-24 01:30N 58°12' E 021°12'714.2
2017-Jul-24 01:00N 58°19' E 021°11'815.1
2017-Jul-24 00:30N 58°27' E 021°11'713.4
2017-Jul-24 00:01N 58°34' E 021°11'714.0
2017-Jul-23 23:30N 58°41' E 021°13'815.6
2017-Jul-23 23:00N 58°48' E 021°15'713.4
2017-Jul-23 22:30N 58°55' E 021°16'816.4
2017-Jul-23 22:00N 59°03' E 021°17'815.1
2017-Jul-23 21:31N 59°11' E 021°17'714.8
2017-Jul-23 21:00N 59°18' E 021°18'714.9
2017-Jul-23 20:31N 59°26' E 021°18'713.3
2017-Jul-23 20:01N 59°32' E 021°19'714.3
2017-Jul-23 19:31N 59°39' E 021°20'713.0
2017-Jul-23 19:00N 59°46' E 021°21'10639.8
2017-Jul-23 19:00N 59°36' E 021°18'1530.3 330 / 111017.010.8 17.213.3
2017-Jul-23 18:30N 59°50' E 021°24'713.3
2017-Jul-23 18:00N 59°54' E 021°35'612.9
2017-Jul-23 17:30N 59°59' E 021°42'713.3
2017-Jul-23 17:00N 60°06' E 021°42'510.3
2017-Jul-23 16:30N 60°11' E 021°42'4 7.0
2017-Jul-23 16:00N 60°14' E 021°46'510.2
2017-Jul-23 15:31N 60°16' E 021°56'4 8.5
2017-Jul-23 15:00N 60°19' E 022°03'2 3.6
2017-Jul-23 14:30N 60°20' E 022°04'0 0.4
2017-Jul-23 14:00N 60°21' E 022°04'0 0.7
2017-Jul-23 13:30N 60°21' E 022°04'0 0.7
2017-Jul-23 13:00N 60°21' E 022°04'0 0.4
2017-Jul-23 12:31N 60°21' E 022°05'2 3.7
2017-Jul-23 12:00N 60°23' E 022°06'3 6.1
2017-Jul-23 11:30N 60°25' E 022°10'2 3.3
2017-Jul-23 11:00N 60°26' E 022°13'0 0.9
2017-Jul-23 10:29N 60°26' E 022°13'0 0.0
2017-Jul-23 09:59N 60°26' E 022°13'0 0.0
2017-Jul-23 09:29N 60°26' E 022°13'0 0.0
2017-Jul-23 08:59N 60°26' E 022°13'0 0.0
2017-Jul-23 08:29N 60°26' E 022°13'0 0.0
2017-Jul-23 07:59N 60°26' E 022°13'0 0.0
2017-Jul-23 07:29N 60°26' E 022°13'0 0.0
2017-Jul-23 06:54N 60°26' E 022°13'0 0.0
2017-Jul-23 06:29N 60°26' E 022°13'0 0.0
2017-Jul-23 05:59N 60°26' E 022°13'0 0.0
2017-Jul-23 05:29N 60°26' E 022°13'0 0.0
2017-Jul-23 04:59N 60°26' E 022°13'0 0.0
2017-Jul-23 04:29N 60°26' E 022°13'0 0.0
2017-Jul-23 03:59N 60°26' E 022°13'0 0.0
2017-Jul-23 03:29N 60°26' E 022°13'0 0.0
2017-Jul-23 02:59N 60°26' E 022°13'0 0.0
2017-Jul-23 02:29N 60°26' E 022°13'0 0.0
2017-Jul-23 01:59N 60°26' E 022°13'0 0.0
2017-Jul-23 01:29N 60°26' E 022°13'0 0.0
2017-Jul-23 00:59N 60°26' E 022°13'0 0.0
2017-Jul-23 00:29N 60°26' E 022°13'0 0.0
2017-Jul-22 23:59N 60°26' E 022°13'0 0.0
2017-Jul-22 23:29N 60°26' E 022°13'0 0.0
2017-Jul-22 22:59N 60°26' E 022°13'0 0.0
2017-Jul-22 22:29N 60°26' E 022°13'0 0.0
2017-Jul-22 21:59N 60°26' E 022°13'0 0.0
2017-Jul-22 21:29N 60°26' E 022°13'0 0.0
2017-Jul-22 20:58N 60°26' E 022°13'0 0.0
2017-Jul-22 20:25N 60°26' E 022°13'0 0.0
2017-Jul-22 19:58N 60°26' E 022°13'0 0.0
2017-Jul-22 19:29N 60°26' E 022°13'0 0.0
2017-Jul-22 18:58N 60°26' E 022°13'0 0.0
2017-Jul-22 18:28N 60°26' E 022°13'0 0.0
2017-Jul-22 17:58N 60°26' E 022°13'0 0.0
2017-Jul-22 17:28N 60°26' E 022°13'0 0.0
2017-Jul-22 16:58N 60°26' E 022°13'0 0.0
2017-Jul-22 16:28N 60°26' E 022°13'0 0.0
2017-Jul-22 15:58N 60°26' E 022°13'0 0.0
2017-Jul-22 15:28N 60°26' E 022°13'0 0.0
2017-Jul-22 14:58N 60°26' E 022°13'0 0.0
2017-Jul-22 13:58N 60°26' E 022°13'0 0.0
2017-Jul-22 13:28N 60°26' E 022°13'0 0.0
2017-Jul-22 12:58N 60°26' E 022°13'0 0.0
2017-Jul-22 12:28N 60°26' E 022°13'0 0.0
2017-Jul-22 11:58N 60°26' E 022°13'0 0.0
2017-Jul-22 11:28N 60°26' E 022°13'0 0.0
2017-Jul-22 10:58N 60°26' E 022°13'0 0.0
2017-Jul-22 10:28N 60°26' E 022°13'0 0.0
2017-Jul-22 09:58N 60°26' E 022°13'0 0.0
2017-Jul-22 09:28N 60°26' E 022°13'0 0.0
2017-Jul-22 08:58N 60°26' E 022°13'0 0.0
2017-Jul-22 08:28N 60°26' E 022°13'0 0.0
2017-Jul-22 07:58N 60°26' E 022°13'0 0.0
2017-Jul-22 07:30N 60°26' E 022°13'0 0.8
2017-Jul-22 07:00N 60°26' E 022°13'3 5.8
2017-Jul-22 06:30N 60°25' E 022°08'5 9.6
2017-Jul-22 06:00N 60°20' E 022°04'5 9.1
2017-Jul-22 05:30N 60°17' E 021°59'5 9.7
2017-Jul-22 05:00N 60°15' E 021°49'4 8.7
2017-Jul-22 04:30N 60°12' E 021°42'5 9.6
2017-Jul-22 04:00N 60°08' E 021°41'510.4
2017-Jul-22 03:30N 60°03' E 021°41'510.6
2017-Jul-22 03:00N 59°57' E 021°41'510.5
2017-Jul-22 02:30N 59°54' E 021°33'510.7
2017-Jul-22 02:00N 59°51' E 021°24'5 9.7
2017-Jul-22 01:30N 59°46' E 021°21'5 9.1
2017-Jul-22 01:00N 59°42' E 021°20'511.0
2017-Jul-22 00:30N 59°37' E 021°14'815.3
2017-Jul-22 00:00N 59°37' E 020°59'816.2
2017-Jul-21 23:31N 59°39' E 020°43'815.1
2017-Jul-21 23:01N 59°42' E 020°30'815.5
2017-Jul-21 22:31N 59°45' E 020°15'816.3
2017-Jul-21 22:00N 59°45' E 019°59'816.2
2017-Jul-21 21:30N 59°45' E 019°43'815.6
2017-Jul-21 21:01N 59°47' E 019°28'713.5
2017-Jul-21 20:30N 59°45' E 019°15'815.2
2017-Jul-21 20:01N 59°42' E 019°01'510.3
2017-Jul-21 19:30N 59°39' E 018°53'611.2
2017-Jul-21 19:00N 59°35' E 018°44'510.4
2017-Jul-21 18:30N 59°33' E 018°35'5 9.8
2017-Jul-21 18:00N 59°30' E 018°28'5 9.9
2017-Jul-21 17:30N 59°25' E 018°25'3 6.6
2017-Jul-21 17:00N 59°22' E 018°24'5 9.9
2017-Jul-21 16:30N 59°21' E 018°15'4 7.7
2017-Jul-21 16:00N 59°21' E 018°07'0 0.4
2017-Jul-21 15:31N 59°21' E 018°07'0 0.0
2017-Jul-21 14:59N 59°21' E 018°07'0 0.0
2017-Jul-21 14:19N 59°21' E 018°07'0 0.0
2017-Jul-21 13:49N 59°21' E 018°07'0 0.0
2017-Jul-21 13:13N 59°21' E 018°07'0 0.0
2017-Jul-21 12:58N 59°21' E 018°07'0 0.0
2017-Jul-21 12:27N 59°21' E 018°07'0 0.0
2017-Jul-21 11:57N 59°21' E 018°07'0 0.0
2017-Jul-21 11:23N 59°21' E 018°07'0 0.0
2017-Jul-21 10:58N 59°21' E 018°07'0 0.0
2017-Jul-21 10:28N 59°21' E 018°07'0 0.0
2017-Jul-21 09:58N 59°21' E 018°07'0 0.0
2017-Jul-21 09:30N 59°21' E 018°07'0 0.0
2017-Jul-21 09:00N 59°21' E 018°07'0 0.0
2017-Jul-21 08:17N 59°21' E 018°07'0 0.0
2017-Jul-21 07:58N 59°21' E 018°07'0 0.0
2017-Jul-21 07:28N 59°21' E 018°07'0 0.0
2017-Jul-21 06:48N 59°21' E 018°07'0 0.4
2017-Jul-21 06:30N 59°21' E 018°07'3 5.8
2017-Jul-21 06:01N 59°20' E 018°12'5 9.9
2017-Jul-21 05:30N 59°23' E 018°21'3 5.8
2017-Jul-21 05:00N 59°23' E 018°27'3 6.3
2017-Jul-21 04:30N 59°27' E 018°26'4 8.4
2017-Jul-21 04:00N 59°24' E 018°32'5 9.6
2017-Jul-21 03:30N 59°23' E 018°42'5 9.9
2017-Jul-21 03:01N 59°19' E 018°48'5 9.7
2017-Jul-21 02:30N 59°16' E 018°56'5 9.4
2017-Jul-21 02:00N 59°14' E 019°04'4 8.9
2017-Jul-21 01:30N 59°11' E 019°10'611.6
2017-Jul-21 01:00N 59°05' E 019°07'713.3
2017-Jul-21 00:30N 58°59' E 019°02'713.8
2017-Jul-21 00:00N 58°53' E 018°57'714.7
2017-Jul-20 23:30N 58°46' E 018°51'714.9
2017-Jul-20 23:00N 58°39' E 018°46'3015.0
2017-Jul-20 21:02N 58°12' E 018°25'7142.8
2017-Jul-20 21:00N 58°18' E 018°30'9121.8 010 / 111014.710.8 16.515.5
2017-Jul-20 20:55N 58°10' E 018°24'715.2
2017-Jul-20 20:29N 58°04' E 018°20'715.1
2017-Jul-20 20:00N 57°57' E 018°13'815.3
2017-Jul-20 19:30N 57°50' E 018°07'815.3
2017-Jul-20 19:00N 57°43' E 018°01'4015.9
2017-Jul-20 16:28N 57°06' E 017°32'1016.3
2017-Jul-20 15:53N 56°57' E 017°25'616.2
2017-Jul-20 15:30N 56°52' E 017°21'816.2
2017-Jul-20 15:00N 56°44' E 017°15'2116.1
2017-Jul-20 13:43N 56°25' E 017°02'316.0
2017-Jul-20 13:30N 56°22' E 017°00'816.0
2017-Jul-20 13:01N 56°14' E 016°55'816.1
2017-Jul-20 12:30N 56°06' E 016°52'815.8
2017-Jul-20 12:00N 56°01' E 016°42'816.0
2017-Jul-20 11:30N 55°57' E 016°30'816.0
2017-Jul-20 11:00N 55°53' E 016°17'816.1
2017-Jul-20 10:30N 55°49' E 016°04'816.0
2017-Jul-20 10:00N 55°46' E 015°51'816.1
2017-Jul-20 09:30N 55°43' E 015°38'816.1
2017-Jul-20 09:00N 55°38' E 015°26'816.1
2017-Jul-20 08:30N 55°34' E 015°14'816.3
2017-Jul-20 08:01N 55°31' E 015°01'816.2
2017-Jul-20 07:30N 55°27' E 014°48'816.0
2017-Jul-20 07:00N 55°22' E 014°37'816.2
2017-Jul-20 06:30N 55°16' E 014°29'816.0
2017-Jul-20 06:01N 55°10' E 014°20'816.1
2017-Jul-20 05:30N 55°03' E 014°10'815.7
2017-Jul-20 05:00N 54°59' E 013°59'815.9
2017-Jul-20 04:30N 54°57' E 013°45'815.9
2017-Jul-20 03:59N 54°54' E 013°31'715.7
2017-Jul-20 03:30N 54°52' E 013°19'815.7
2017-Jul-20 02:59N 54°49' E 013°06'815.5
2017-Jul-20 02:30N 54°47' E 012°53'815.1
2017-Jul-20 01:59N 54°44' E 012°41'1815.1
2017-Jul-20 00:48N 54°32' E 012°17'515.6
2017-Jul-20 00:29N 54°28' E 012°15'714.3
2017-Jul-20 00:00N 54°25' E 012°04'1714.9
2017-Jul-19 22:50N 54°28' E 011°35'515.7
2017-Jul-19 22:29N 54°30' E 011°26'714.8
2017-Jul-19 22:01N 54°33' E 011°15'714.4
2017-Jul-19 21:30N 54°37' E 011°05'714.7
2017-Jul-19 21:00N 54°41' E 010°54'713.1
2017-Jul-19 20:30N 54°47' E 010°51'713.7
2017-Jul-19 20:01N 54°54' E 010°53'12736.0
2017-Jul-19 20:00N 54°42' E 010°48'1939.2 090 / 351011.610.8 17.113.2
2017-Jul-19 19:30N 54°60' E 011°01'814.6
2017-Jul-19 18:59N 55°07' E 011°02'109 5.0
2017-Jul-18 21:21N 56°53' E 011°46'511.6
2017-Jul-18 20:54N 56°58' E 011°43'611.7
2017-Jul-18 20:22N 57°04' E 011°39'2 5.8
2017-Jul-18 20:00N 57°06' E 011°36'386.1 230 / 151018.3 5.4 16.011.2
2017-Jul-18 19:57N 57°09' E 011°37'511.6
2017-Jul-18 19:30N 57°14' E 011°37'611.6
2017-Jul-18 19:00N 57°20' E 011°35'611.2
2017-Jul-18 18:30N 57°26' E 011°36'611.6
2017-Jul-18 18:00N 57°31' E 011°37'510.5
2017-Jul-18 17:31N 57°36' E 011°40'5 9.6
2017-Jul-18 17:00N 57°41' E 011°43'3 6.6
2017-Jul-18 16:30N 57°42' E 011°49'0 0.1
2017-Jul-18 16:01N 57°42' E 011°49'0 0.1
2017-Jul-18 15:30N 57°42' E 011°49'0 0.0
2017-Jul-18 14:59N 57°42' E 011°49'0 0.0
2017-Jul-18 13:59N 57°42' E 011°49'0 0.0
2017-Jul-18 13:29N 57°42' E 011°49'0 0.0
2017-Jul-18 12:58N 57°42' E 011°49'0 0.0
2017-Jul-18 12:28N 57°42' E 011°49'0 0.0
2017-Jul-18 11:58N 57°42' E 011°49'0 0.0
2017-Jul-18 11:28N 57°42' E 011°49'0 0.0
2017-Jul-18 11:00N 57°42' E 011°49'0 0.0
2017-Jul-18 10:30N 57°42' E 011°49'0 0.0
2017-Jul-18 10:00N 57°42' E 011°49'0 0.0
2017-Jul-18 09:31N 57°42' E 011°49'0 0.0
2017-Jul-18 08:59N 57°42' E 011°49'0 0.0
2017-Jul-18 08:29N 57°42' E 011°49'0 0.0
2017-Jul-18 07:59N 57°42' E 011°49'0 0.0
2017-Jul-18 07:29N 57°42' E 011°49'0 0.0
2017-Jul-18 06:59N 57°42' E 011°49'0 0.0
2017-Jul-18 06:29N 57°42' E 011°49'0 0.0
2017-Jul-18 06:01N 57°42' E 011°49'1 2.0
2017-Jul-18 05:30N 57°41' E 011°48'4 7.7
2017-Jul-18 05:00N 57°39' E 011°41'5 9.3
2017-Jul-18 04:31N 57°36' E 011°36'4 8.5
2017-Jul-18 04:00N 57°38' E 011°30'4 8.6
2017-Jul-18 03:30N 57°41' E 011°24'611.1
2017-Jul-18 03:00N 57°44' E 011°16'611.4
2017-Jul-18 02:30N 57°48' E 011°07'712.0
2017-Jul-18 01:54N 57°52' E 010°56'512.0
2017-Jul-18 01:30N 57°54' E 010°48'612.1
2017-Jul-18 01:00N 57°55' E 010°37'612.9
2017-Jul-18 00:30N 57°54' E 010°25'5710.4
2017-Jul-17 19:00N 57°30' E 008°48'100 8.9 270 / 151017.0 0.3 15.010.9
2017-Jul-17 07:47N 56°12' E 006°52'3 8.8
2017-Jul-17 07:30N 56°10' E 006°50'5 9.0
2017-Jul-17 06:59N 56°06' E 006°46'4 8.9
2017-Jul-17 06:30N 56°02' E 006°42'2447.3
2017-Jul-17 06:00N 55°42' E 006°18'64 6.4 220 / 181019.510.8 15.510.816.0
2017-Jul-16 20:00N 54°48' E 005°18'   270 / 251021.010.8 15.410.915.0

Dump ship's entire track history